Архив погоды в Биробиджане

Метеограмма Биробиджан
Понедельник, 23 Октября
Время местн. Темп Ветер Видим Явления Облачность нижн/средн/верх Атм. давл. Влжн Точка росы ВНГО R Сост. почвы Tg s
Напр Скр Прв ур.ст ур.м изм
22:00 +0.1° С-З 1 - более 50 км - ясно 756 764 +0.5 43% -10.9° более 2.5 км - - - -
19:00 +6° С,С-З 2 - 50 км - незначительная облачность 755 763 +0.3 24% -13.2° - 0 - - -
16:00 +9° С-З 3 - более 50 км - ясно 755 762 -1.3 22% -11.6° более 2.5 км - - - -
13:00 +6° С-З 3 - 50 км - незначительная облачность 756 764 -1.4 28% -11.2° более 2.5 км - - - -
10:00 -0.5° С,С-З 2 - 50 км - ясно 758 765 -0.5 44% -11.3° более 2.5 км - - - -
07:00 -4.2° С-З 3 - более 50 км - ясно 758 766 -1.1 54% -12° более 2.5 км 0 Замерзшая -6° -
04:00 -4.6° С-З 2 - 50 км - ясно 759 767 -1 56% -12° более 2.5 км - - - -
01:00 -4.4° С-З 2 - более 50 км - ясно 760 768 -0.5 59% -11.1° более 2.5 км - - - -
Воскресенье, 22 Октября
Время местн. Темп Ветер Видим Явления Облачность нижн/средн/верх Атм. давл. Влжн Точка росы ВНГО R Сост. почвы Tg s
Напр Скр Прв ур.ст ур.м изм
22:00 -2.8° З,С-З 2 - 50 км - облачно 761 769 +0.2 53% -11.1° более 2.5 км - - - -
19:00 -0.5° З 3 - более 50 км - переменная облачность 761 768 +0.5 42% -11.8° более 2.5 км 0 - - -
16:00 +3.4° З,С-З 3 - 50 км - переменная облачность 760 768 -0.8 31% -11.9° более 2.5 км - - - -
13:00 +1.9° З,С-З 3 11 более 50 км - переменная облачность 761 769 -0.3 32% -12.9° более 2.5 км - - - -
10:00 -1.9° З 4 - 50 км - ясно 761 769 +0.6 38% -14.2° более 2.5 км - - - -
07:00 -4.8° З,С-З 3 - более 50 км - ясно 761 768 +0.6 53% -12.9° более 2.5 км 0 Замерзшая -6° -
04:00 -4.8° Ю-З 4 - 50 км - ясно 760 768 -0.5 61% -11.1° более 2.5 км - - - -
01:00 -4.9° З 4 - более 50 км - ясно 761 768 -0.4 64% -10.6° более 2.5 км - - - -
Суббота, 21 Октября
Время местн. Темп Ветер Видим Явления Облачность нижн/средн/верх Атм. давл. Влжн Точка росы ВНГО R Сост. почвы Tg s
Напр Скр Прв ур.ст ур.м изм
22:00 -3.2° З 4 - 50 км - ясно 761 769 +1.4 54% -11.2° более 2.5 км - - - -
19:00 -2.2° З 4 11 более 50 км - ясно 760 767 +2.6 53% -10.5° более 2.5 км 0 - - -
16:00 +1.5° З 7 13 более 50 км - незначительная облачность 757 765 +1.7 38% -11.2° 1.5 км - - - -
13:00 +2.7° З,С-З 5 12 более 50 км - переменная облачность 755 763 +1.5 55% -5.4° 1 км - - - -
10:00 +1.4° З 5 - 20 км небо без изменений {ливневые осадки} облачно с прояснениями 754 761 +1.1 88% -0.4° 1 км - - - -
07:00 +1.3° З,С-З 1 - 2 км мгла {ливневые осадки} облачно 753 760 -0.2 99% +1.1° - 4 Влажная (без луж) - -
04:00 +1.3° С,С-З 2 - 2 км слабый ливневый дождь облачно 753 760 -1.6 95% +0.6° 1 км - - - -
01:00 +3.2° С 1 - 2 км мгла облачно 754 762 -1.6 63% -3.2° - - - - -
Пятница, 20 Октября
Время местн. Темп Ветер Видим Явления Облачность нижн/средн/верх Атм. давл. Влжн Точка росы ВНГО R Сост. почвы Tg s
Напр Скр Прв ур.ст ур.м изм
22:00 +3.1° С,С-В 1 - 2 км мгла ясно 756 763 -0.7 64% -3° более 2.5 км - - - -
19:00 +2.8° В 1 - 2 км мгла ясно 757 764 -0.8 59% -4.4° более 2.5 км 0 - - -